x

9442396 - La Push, Wa (lapw1) Weather Station

1:30 - Fri 3rd Jul 2015 All times are PDT. -7 hours from GMT.

  • Wind
  • Sea Temp 47°f
  • Ar Temp 54°f
  • Sea Pressure 1014.6mb
  • 9442396 - La Push, Wa
  • 9442396 - La Push, Wa

More Historic Weather Station data

Upgrade to MSW Pro to gain access to the past 30 days of data for over 8000 Wavebouys and Weather Stations around the globe.

Join Pro

Comparision Forecast

View Surf forecast
   
Sex 07/03 1:30  -  2 mph 1014.6mb 47f 54f
1:24  -  1 mph 1014.7mb 48f 54f
1:18  -  1 mph 1014.7mb 48f 55f
1:12  -  1 mph 1014.7mb 47f 55f
1:06  -  1 mph 1014.8mb 47f 55f
1:00  -  mph 1014.8mb 48f 55f
12:36  -  mph 1014.9mb 48f 55f
12:30  -  2 mph 1015mb 48f 55f
12:24 1 2 mph 1015mb 48f 55f
12:18 1 3 mph 1015.1mb 48f 56f
12:12 1 3 mph 1015.1mb 48f 56f
12:06 2 3 mph 1015.1mb 48f 56f
12:00 2 3 mph 1015.1mb 48f 56f
Qui 07/02 11:36  -  1 mph 1015mb 48f 56f
11:30  -  2 mph 1015mb 48f 56f
11:24 1
mph
1015mb 48f 56f
11:18  -  mph 1015.1mb 48f 56f
11:12  -  1 mph 1015.1mb 49f 56f
11:06  -  1 mph 1015.1mb 49f 56f
11:00  -  2 mph 1015mb 49f 56f
10:36 3 5 mph 1015mb 49f 55f
10:30  -  5 mph 1015mb 49f 55f
10:24 2 3 mph 1015.1mb 49f 55f
10:18 2 3 mph 1015.1mb 50f 56f
10:12 1 2 mph 1015.1mb 50f 56f
10:06  -  2 mph 1015.1mb 50f 56f
10:00 2 5 mph 1015.1mb 50f 56f
9:36 7 9 mph 1015.1mb 50f 56f
9:30 8 10 mph 1015.1mb 50f 56f
9:24 3 9 mph 1015mb 50f 57f
9:18 8 11 mph 1015mb 50f 57f
9:12 9 13 mph 1015.1mb 50f 57f
9:06 10 13 mph 1015mb 50f 57f
9:00 11 14 mph 1014.9mb 50f 57f
8:36 13 16 mph 1014.9mb 51f 58f
8:30 13 15 mph 1014.9mb 51f 58f
8:24 11 16 mph 1014.9mb 51f 58f
8:18 11 16 mph 1014.9mb 51f 58f
8:12 14 16 mph 1014.9mb 51f 58f
8:06 11 15 mph 1015mb 51f 58f
8:00 13 16 mph 1015.1mb 51f 58f
7:36 14 18 mph 1015.5mb 51f 58f
7:30 15 18 mph 1015.5mb 51f 58f
7:24 14 18 mph 1015.5mb 51f 58f
7:18 15 18 mph 1015.6mb 51f 58f
7:12 15 17 mph 1015.6mb 51f 58f
7:06 16 20 mph 1015.7mb 51f 58f
7:00 16 22 mph 1015.6mb 51f 58f
6:36 16 21 mph 1015.6mb 49f 58f
6:30 16 21 mph 1015.6mb 49f 58f
6:24 16 21 mph 1015.6mb 49f 58f
6:18 16 22 mph 1015.6mb 49f 58f
6:12 17 21 mph 1015.7mb 49f 58f
6:06 17 21 mph 1015.7mb 49f 58f
6:00 18 22 mph 1015.7mb 48f 58f
5:36 16 21 mph 1015.9mb 48f 58f
5:30 16 20 mph 1015.9mb 48f 58f
5:24 15 20 mph 1016mb 48f 58f
5:18 15 20 mph 1016mb 48f 58f
5:12 14 20 mph 1016.1mb 48f 58f
5:06 13 16 mph 1016.1mb 48f 58f
5:00 13 17 mph 1016.1mb 48f 58f
4:36 11 15 mph 1016.4mb 49f 58f
4:30 10 14 mph 1016.5mb 49f 58f
4:24 10 14 mph 1016.5mb 49f 58f
4:18 10 13 mph 1016.5mb 49f 58f
4:12 11 14 mph 1016.6mb 49f 58f
4:06 11 13 mph 1016.5mb 49f 57f
4:00 9 11 mph 1016.5mb 49f 58f
3:36 10 13 mph 1016.7mb 49f 58f
3:30 9 11 mph 1016.6mb 49f 58f
3:24 9 10 mph 1016.7mb 49f 58f
3:18 9 10 mph 1016.7mb 49f 58f
3:12 8 9 mph 1016.7mb 49f 58f
3:06 6 9 mph 1016.6mb 49f 58f
3:00 9 10 mph 1016.7mb 49f 58f
2:36 7 9 mph 1016.9mb 49f 58f
2:30 8 10 mph 1017mb 49f 58f
2:24 7 10 mph 1016.9mb 49f 58f
2:18 7 9 mph 1016.9mb 49f 58f
2:12 7 9 mph 1016.8mb 49f 58f
2:06 8 9 mph 1016.9mb 49f 58f
2:00 8 9 mph 1016.9mb 49f 58f
1:36 6 7 mph 1016.9mb 49f 58f
1:30 5 7 mph 1016.9mb 49f 58f
1:24 6 7 mph 1017mb 49f 58f
1:18 5 7 mph 1017mb 49f 58f
1:12 6 8 mph 1016.9mb 49f 58f
1:06 6 7 mph 1016.8mb 49f 58f
1:00 6 7 mph 1016.9mb 49f 58f
12:36 5 6 mph 1016.9mb 49f 58f
12:30 5 6 mph 1016.9mb 49f 58f
12:24 3 6 mph 1017mb 49f 58f
12:18 5 6 mph 1017.1mb 49f 58f
12:12 6 7 mph 1017.2mb 49f 57f
12:06 6 7 mph 1017.2mb 49f 57f
12:00 6 8 mph 1017.2mb 49f 57f
11:36 3 7 mph 1016.9mb 48f 57f
11:30 6 7 mph 1016.9mb 48f 57f
11:24 5 7 mph 1017mb 48f 57f
11:18 6 7 mph 1017mb 48f 56f
11:12 5 8 mph 1017mb 48f 56f
11:06 5 7 mph 1016.9mb 48f 56f
11:00 6 8 mph 1016.8mb 48f 56f
10:36 8 9 mph 1016.9mb 48f 56f
10:30 7 8 mph 1017mb 49f 56f
10:24 6 8 mph 1017mb 49f 57f
10:18 6 7 mph 1016.9mb 49f 56f
10:12 5 8 mph 1016.8mb 49f 57f
10:06 5 6 mph 1016.8mb 49f 57f
10:00 5
mph
1016.8mb 49f 57f
9:36  -  mph 1016.9mb - -
9:18  -  mph 1016.8mb - -
9:12  -  mph 1016.9mb - -
9:06  -  mph 1016.9mb - -
9:00  -  mph 1016.9mb - -
7:36 3 7 mph 1016.4mb 60f 59f
7:30  -  5 mph 1016.2mb 60f 59f
7:24 2 5 mph 1016mb 60f 59f
7:18 3 5 mph 1016mb 60f 58f
7:12 1 3 mph 1016.1mb 60f 58f
7:06 1 2 mph 1016.1mb 59f 58f
7:00 1 3 mph 1016.2mb 59f 57f
6:36 1 2 mph 1016mb 59f 56f
6:30  -  1 mph 1016mb 59f 56f
6:24  -  1 mph 1016.1mb 59f 55f
6:18 1 2 mph 1016mb 58f 55f
6:12 2
mph
1015.9mb 58f 55f
6:06 1 5 mph 1015.8mb 58f 56f
6:00 2 5 mph 1015.8mb 58f 56f
5:36 3 5 mph 1016mb 54f 56f
5:30 3 5 mph 1016mb 51f 56f
5:24 3 5 mph 1016mb 50f 56f
5:18 3
mph
1015.9mb 49f 56f
5:12 2 3 mph 1015.9mb 49f 56f
5:06 3 5 mph 1015.8mb 49f 56f
5:00 5 6 mph 1015.8mb 49f 56f
4:36  -  3 mph 1015.7mb 49f 55f
4:30 2 3 mph 1015.7mb 49f 55f
4:24 2 3 mph 1015.7mb 49f 55f
4:18 2 6 mph 1015.6mb 48f 56f
4:12 1 5 mph 1015.6mb 48f 56f
4:06 1 3 mph 1015.7mb 48f 56f
4:00 1 6 mph 1015.6mb 49f 56f
3:36 3 7 mph 1015.5mb 49f 56f
3:30 2 6 mph 1015.5mb 49f 56f
3:24 5 8 mph 1015.1mb 49f 56f
3:18 6 9 mph 1015.1mb 49f 56f
3:12 6 7 mph 1015mb 49f 56f
3:06 3 6 mph 1015mb 49f 55f
3:00 2 5 mph 1015.1mb 49f 55f
2:36  -  2 mph 1015.4mb 49f 56f
2:30 2 3 mph 1015.5mb 49f 56f
2:24  -  1 mph 1015.3mb 49f 56f
2:18  -  1 mph 1015.3mb 49f 56f
2:12  -  3 mph 1015.3mb 49f 56f
2:06 3 5 mph 1015.2mb 49f 56f
2:00 5 7 mph 1015.2mb 49f 56f
1:54 5 9 mph 1015.3mb 49f 56f
1:48 7 11 mph 1015.4mb 49f 56f
1:36 10 13 mph 1015.4mb 49f 56f
1:30 6 8 mph 1015.2mb 49f 56f
1:24 5 7 mph 1015.2mb 49f 56f
1:18 7 13 mph 1015.2mb 49f 56f
1:12 11 13 mph 1015.3mb 49f 57f
1:06 10 13 mph 1015.3mb 49f 57f
1:00 11 14 mph 1015.4mb 49f 57f
12:54 10 13 mph 1015.3mb 49f 57f
12:48 8 10 mph 1015.1mb 49f 57f
12:36 9 13 mph 1015.2mb 49f 56f
12:30 10 13 mph 1015.2mb 49f 56f
12:24 11 13 mph 1015.4mb 49f 56f
12:18 8 10 mph 1015.4mb 48f 56f
12:12 6 9 mph 1015.2mb 48f 56f
12:06 6 8 mph 1015.4mb 48f 56f
12:00 7 9 mph 1015.4mb 48f 56f
Qua 07/01 11:54  -  1 mph 1015mb 48f 56f
11:48 1 2 mph 1015mb 48f 56f
11:36 3 5 mph 1015.1mb 49f 56f
11:30 2 3 mph 1015.2mb 48f 56f
11:24 3 6 mph 1015.2mb 49f 56f
11:18 6 8 mph 1015.3mb 48f 56f
11:12 5 7 mph 1015.3mb 48f 56f
11:06 3 5 mph 1015.3mb 49f 56f
11:00 2 3 mph 1015.2mb 49f 56f
10:54 2 3 mph 1015.2mb 49f 56f
10:48 2 5 mph 1015.2mb 48f 56f
10:36 1 3 mph 1015.3mb 49f 56f
10:30 3 5 mph 1015.3mb 48f 56f
10:24 3 5 mph 1015.4mb 49f 57f
10:18 3 5 mph 1015.5mb 48f 56f
10:12 2 6 mph 1015.5mb 48f 57f
10:06 3 8 mph 1015.5mb 49f 57f
10:00 6 8 mph 1015.6mb 49f 57f
9:54 5 10 mph 1015.6mb 49f 57f
9:48 6 7 mph 1015.6mb 49f 56f
9:36 5 7 mph 1015.3mb 49f 56f
9:30 6 8 mph 1015.3mb 49f 56f
9:24 5 7 mph 1015.3mb 49f 56f
9:18 6 8 mph 1015.3mb 49f 56f
9:12 7 9 mph 1015.4mb 49f 57f
9:06 7 10 mph 1015.3mb 49f 57f
9:00 7 11 mph 1015.3mb 49f 57f
8:54 5 14 mph 1015.3mb 49f 57f
8:48 10 13 mph 1015.4mb 49f 58f
8:36 9 11 mph 1015.4mb 49f 58f
8:30 9 15 mph 1015.4mb 49f 58f
8:24 10 15 mph 1015.4mb 49f 59f
8:18 11 15 mph 1015.4mb 49f 59f
8:12 10 14 mph 1015.4mb 49f 59f
8:06 9 16 mph 1015.3mb 49f 60f
8:00 11 16 mph 1015.2mb 49f 59f
7:54 14 20 mph 1015.2mb 49f 60f
7:48 16 22 mph 1015.3mb 49f 60f
7:36 16 21 mph 1015.2mb 49f 60f
7:30 16 22 mph 1015.1mb 49f 60f
7:24 16 21 mph 1015.1mb 49f 62f
7:18 17 22 mph 1015.1mb 49f 62f
7:12 17 22 mph 1015.1mb 49f 62f
7:06 18 23 mph 1015.1mb 49f 62f
7:00 18 24 mph 1015mb 49f 62f
6:54 20 24 mph 1015mb 48f 63f
6:48 20 24 mph 1014.9mb 48f 63f
6:36 21 25 mph 1015mb 48f 65f
6:30 22 25 mph 1015mb 48f 65f
6:24 22 25 mph 1014.9mb 48f 64f
6:18 20 24 mph 1014.9mb 48f 63f
6:12 22 25 mph 1015mb 48f 64f
6:06 21 24 mph 1015mb 47f 64f
6:00 17 22 mph 1015mb 47f 63f
5:54 18 23 mph 1015mb 47f 62f
5:48 20 23 mph 1015.1mb 47f 61f
5:36 21 25 mph 1015.3mb 47f 59f
5:30 18 22 mph 1015.3mb 47f 59f
5:24 18 24 mph 1015.5mb 47f 59f
5:18 20 23 mph 1015.5mb 47f 59f
5:12 18 22 mph 1015.5mb 47f 59f
5:06 20 24 mph 1015.7mb 47f 59f
5:00 17 22 mph 1015.8mb 47f 59f
4:54 17 21 mph 1015.8mb 47f 59f
4:48 16 22 mph 1015.9mb 47f 59f
4:36 14 18 mph 1016mb 47f 58f
4:30 16 21 mph 1016.1mb 47f 58f
4:24 16 20 mph 1016.1mb 47f 58f
4:18 15 18 mph 1016.2mb 47f 58f
4:12 16 20 mph 1016.3mb 47f 58f
4:06 15 18 mph 1016.3mb 48f 58f
4:00 14 17 mph 1016.4mb 47f 58f
3:54 15 18 mph 1016.5mb 47f 58f
3:48 15 18 mph 1016.5mb 48f 58f
3:36 16 18 mph 1016.6mb 48f 58f
3:30 14 16 mph 1016.6mb 48f 58f
3:24 14 16 mph 1016.6mb 48f 58f
3:18 11 14 mph 1016.6mb 48f 58f
3:12 11 13 mph 1016.6mb 48f 58f
3:06 11 14 mph 1016.6mb 48f 57f
3:00 11 14 mph 1016.7mb 48f 57f
2:54 10 15 mph 1016.8mb 47f 58f
2:48 13 15 mph 1016.7mb 48f 58f
2:36 13 14 mph 1016.7mb 47f 59f
2:30 13 15 mph 1016.7mb 47f 59f
2:24 13 15 mph 1016.8mb 47f 59f
2:18 7 10 mph 1016.8mb 47f 58f
2:12 5 9 mph 1016.9mb 47f 57f
2:06 7 11 mph 1016.9mb 48f 57f
2:00 9 11 mph 1017mb 47f 57f
1:54 9 13 mph 1017mb 48f 57f
1:48 7 10 mph 1017mb 48f 57f
1:36 7 10 mph 1017.2mb 48f 57f
1:30 7 10 mph 1017.2mb 48f 57f
1:24 6 8 mph 1017.2mb 47f 57f
1:18 6 8 mph 1017.3mb 47f 57f
1:12 6 8 mph 1017.4mb 48f 57f
1:06 6 7 mph 1017.4mb 48f 57f
1:00 6 7 mph 1017.4mb 48f 57f
12:54 6 7 mph 1017.3mb 48f 57f
12:48 6 8 mph 1017.4mb 48f 57f
12:36 7 8 mph 1017.4mb 48f 56f
12:30 6 7 mph 1017.4mb 48f 56f
12:24 5 6 mph 1017.4mb 48f 56f
12:18 6 7 mph 1017.4mb 48f 56f
12:12 5 6 mph 1017.5mb 48f 56f
12:06 5 6 mph 1017.5mb 48f 56f
12:00 5 6 mph 1017.6mb 48f 56f
11:54 3 5 mph 1017.6mb 48f 56f
11:48 3 5 mph 1017.6mb 48f 56f
11:36 5 6 mph 1017.5mb 48f 55f
11:30 5 6 mph 1017.6mb 48f 55f
11:24 5 6 mph 1017.6mb 48f 55f
11:18 5 6 mph 1017.6mb 47f 55f
11:12 5 6 mph 1017.6mb 48f 55f
11:06 5 6 mph 1017.5mb 47f 55f
11:00 5
mph
1017.5mb 47f 55f
10:54 3 5 mph 1017.5mb 47f 55f
10:48 5
mph
1017.5mb 47f 55f
10:36 2 3 mph 1017.4mb 47f 56f
10:30 2 5 mph 1017.5mb 47f 56f
10:24 3 6 mph 1017.5mb 47f 55f
10:18 3 6 mph 1017.5mb 47f 55f
10:12 5
mph
1017.4mb 48f 55f
10:06 3
mph
1017.4mb 48f 55f
10:00 3
mph
1017.4mb 48f 55f
9:54 3
mph
1017.5mb 48f 55f
9:48 3 5 mph 1017.5mb 48f 55f
9:36 3 5 mph 1017.6mb 48f 55f
9:30 3 5 mph 1017.6mb 49f 55f
9:24 3 5 mph 1017.6mb 49f 55f
9:18 5 7 mph 1017.6mb 49f 55f
9:12 6 7 mph 1017.5mb 49f 55f
9:06 6
mph
1017.5mb 49f 55f
9:00 3 5 mph 1017.5mb 50f 57f
8:54 3 5 mph 1017.5mb 50f 59f
8:48 2 3 mph 1017.5mb 51f 60f
8:36 1 3 mph 1017.5mb 52f 59f
8:30 2 6 mph 1017.5mb 53f 59f
8:24 3 5 mph 1017.5mb 54f 58f
8:18 2 3 mph 1017.6mb 55f 57f
8:12 1 2 mph 1017.5mb 56f 57f
8:06 2 6 mph 1017.6mb 56f 56f
8:00 5 8 mph 1017.5mb 57f 55f
7:54 5 7 mph 1017.6mb 57f 54f
7:48 5 7 mph 1017.6mb 57f 54f
7:36 7 10 mph 1017.5mb 57f 52f
7:30 7 9 mph 1017.5mb 58f 52f
7:24 6 8 mph 1017.5mb 58f 52f
7:18 6 7 mph 1017.4mb 58f 52f
7:12 5 7 mph 1017.4mb 58f 51f
7:06 6 8 mph 1017.4mb 58f 51f
7:00 5 7 mph 1017.3mb 58f 51f
6:54 6 8 mph 1017.3mb 58f 51f
6:48 5 8 mph 1017.4mb 58f 50f
6:36 6 9 mph 1017.3mb 58f 50f
6:30 8 10 mph 1017.3mb 58f 50f
6:24 8 10 mph 1017.3mb 58f 49f
6:18 7 10 mph 1017.2mb 58f 49f
6:12 7 10 mph 1017.2mb 58f 49f
6:06 7 9 mph 1017.3mb 57f 49f
6:00 6 9 mph 1017.4mb 57f 49f
5:36 3 6 mph 1017.3mb 56f 50f
5:30  -  5 mph 1017.2mb 56f 50f
5:24 5 8 mph 1017.1mb 55f 49f
5:18 6 8 mph 1017mb 55f 49f
5:12 7 9 mph 1016.9mb 54f 49f
5:06 9 11 mph 1016.9mb 53f 49f
5:00 8 11 mph 1016.8mb 53f 49f
4:54 8 11 mph 1016.9mb 51f 50f
4:48 8 10 mph 1017mb 51f 50f
4:36 6 8 mph 1017.1mb 50f 50f
4:30 6 8 mph 1017.1mb 49f 50f
4:24 6 7 mph 1017.1mb 49f 50f
4:18 6 8 mph 1017.1mb 49f 50f
4:12 7 9 mph 1017.2mb 49f 51f
4:06 7 8 mph 1017.2mb 49f 51f
4:00 6 7 mph 1017.3mb 49f 51f
3:54 6 8 mph 1017.3mb 49f 51f
3:48 6
mph
1017.3mb 49f 51f
3:36 3 6 mph 1017.5mb 48f 52f
3:30 5 6 mph 1017.5mb 48f 52f
3:24 3 6 mph 1017.5mb 48f 51f
3:18 5 7 mph 1017.4mb 48f 51f
3:12 5 6 mph 1017.4mb 49f 51f
3:06 5 6 mph 1017.5mb 49f 51f
3:00  -  2 mph 1017.6mb 49f 51f
2:54 2 3 mph 1017.6mb 49f 51f
2:48 1 3 mph 1017.6mb 49f 51f
2:36 1 3 mph 1017.7mb 49f 52f
2:30 2 5 mph 1017.8mb 49f 52f
2:24 3 6 mph 1017.9mb 49f 52f
2:18 5 6 mph 1017.9mb 49f 52f
2:12 3
mph
1018mb 49f 52f
2:06 5 6 mph 1018mb 49f 52f
2:00 3 5 mph 1018.1mb 49f 52f
1:54 5 6 mph 1018.1mb 49f 52f
1:48 5
mph
1018.1mb 49f 52f
1:36 2 3 mph 1018.2mb 49f 53f
1:30 2 3 mph 1018.2mb 49f 53f
1:24  -  1 mph 1018.2mb 49f 53f
1:18  -  1 mph 1018.2mb 49f 53f
1:12 1 2 mph 1018.3mb 49f 53f
1:06  -  1 mph 1018.3mb 49f 53f
1:00  -  1 mph 1018.4mb 49f 54f
12:54 1 2 mph 1018.4mb 49f 54f
12:48  -  1 mph 1018.4mb 49f 54f
12:36 2
mph
1018.6mb 49f 54f
12:30  -  mph 1018.4mb 49f 54f
12:24  -  2 mph 1018.5mb 49f 54f
12:18  -  1 mph 1018.6mb 49f 54f
12:12  -  1 mph 1018.7mb 48f 54f
12:06  -  1 mph 1018.8mb 48f 54f
12:00  -  1 mph 1018.8mb 48f 54f
Ter 06/30 11:54 1 2 mph 1018.8mb 48f 55f
11:48 2
mph
1018.9mb 48f 55f
11:36 2 3 mph 1018.9mb 49f 55f
11:30 2
mph
1018.9mb 48f 55f
11:24 1 2 mph 1018.8mb 49f 55f
11:18 2 3 mph 1018.9mb 49f 55f
11:12 3 6 mph 1018.9mb 49f 56f
11:06 5 6 mph 1018.9mb 49f 56f
11:00 5 7 mph 1018.9mb 49f 56f
10:54 6 7 mph 1019mb 49f 56f
10:48 3
mph
1019mb 49f 56f
10:36  -  1 mph 1019.1mb 49f 56f
10:30  -  1 mph 1019.1mb 49f 56f
10:24  -  1 mph 1019.1mb 49f 56f
10:18  -  1 mph 1019.1mb 49f 56f
10:12 1 2 mph 1019.2mb 49f 56f
10:06  -  2 mph 1019.1mb 49f 57f
10:00 1 2 mph 1019.1mb 49f 57f
9:54 1 3 mph 1019.1mb 49f 57f
9:48 2 3 mph 1019.1mb 49f 57f
9:36 1 3 mph 1019mb 49f 57f
9:30 2 6 mph 1018.9mb 49f 57f
9:24 3 6 mph 1019mb 49f 57f
9:18 5 8 mph 1019mb 49f 57f
9:12 7 8 mph 1019mb 49f 57f
9:06 6 8 mph 1019mb 49f 57f
9:00 6 8 mph 1019mb 49f 57f
8:54 7 9 mph 1019mb 49f 57f
8:48 7 8 mph 1019.1mb 49f 57f
8:36 8 10 mph 1019.1mb 49f 58f
8:30 8 10 mph 1019.1mb 49f 58f
8:24 9 13 mph 1019.1mb 49f 58f
8:18 8 11 mph 1019.1mb 49f 58f
8:12 8 11 mph 1019.1mb 49f 58f
8:06 9 11 mph 1019.1mb 49f 58f
8:00 9 11 mph 1019.2mb 49f 58f
7:54 9 13 mph 1019.1mb 49f 58f
7:48 9 13 mph 1019.1mb 49f 58f
7:36 10 14 mph 1019.2mb 49f 57f
7:30 11 14 mph 1019.2mb 49f 57f
7:24 10 13 mph 1019.3mb 49f 57f
7:18 10 15 mph 1019.4mb 49f 56f
7:12 13 16 mph 1019.4mb 49f 56f
7:06 13 16 mph 1019.4mb 49f 56f
7:00 13 16 mph 1019.5mb 49f 56f
6:54 11 14 mph 1019.5mb 49f 56f
6:48 11 13 mph 1019.5mb 49f 56f
6:36 9 14 mph 1019.5mb 49f 56f
6:30 11 14 mph 1019.5mb 49f 56f
6:24 13 16 mph 1019.6mb 49f 56f
6:18 15 17 mph 1019.6mb 49f 56f
6:12 13 16 mph 1019.6mb 49f 56f
6:06 14 16 mph 1019.7mb 49f 55f
6:00 11 15 mph 1019.8mb 49f 55f
5:54 13 18 mph 1019.9mb 49f 55f
5:48 14 17 mph 1019.9mb 49f 55f
5:36 14 16 mph 1019.9mb 49f 55f
5:30 13 15 mph 1020mb 49f 55f
5:24 11 16 mph 1019.9mb 49f 55f
5:18 13 16 mph 1019.9mb 49f 56f
5:12 14 15 mph 1019.9mb 49f 56f
5:06 10 13 mph 1020mb 49f 56f
5:00 8 11 mph 1020mb 49f 56f
4:54 10 13 mph 1020.1mb 49f 56f
4:48 10 11 mph 1020.1mb 49f 56f
4:36 9 11 mph 1020mb 48f 56f
3:36 9 11 mph 1020.2mb 48f 56f
3:30 9 11 mph 1020.3mb 48f 56f
3:24 8 10 mph 1020.4mb 48f 56f
3:18 7 9 mph 1020.4mb 48f 56f
3:12 8 10 mph 1020.5mb 48f 56f
3:06 8 11 mph 1020.5mb 48f 56f
3:00 9 11 mph 1020.6mb 48f 56f
2:54 8 13 mph 1020.6mb 48f 56f
2:48 11 14 mph 1020.7mb 48f 56f
2:36 9 13 mph 1020.7mb 48f 56f
2:30 9 11 mph 1020.8mb 48f 56f
2:24 9 11 mph 1020.8mb 48f 56f
2:18 10 13 mph 1020.8mb 48f 56f
2:12 10 11 mph 1020.9mb 48f 56f
2:06 10 11 mph - - 56f
2:00 8 10 mph - - 56f
1:54 10 11 mph 1020.9mb 48f 56f
1:48 6 7 mph 1020.8mb 48f 57f
1:36 5 7 mph 1020.9mb 48f 57f
1:30 6 7 mph 1020.9mb 48f 57f
1:24 6 7 mph 1021mb 48f 58f
1:18 5 6 mph 1021mb 48f 58f
1:12 3 6 mph 1021mb 48f 58f
1:06 3 6 mph 1020.9mb 48f 58f
1:00 3 5 mph 1020.8mb 48f 58f
12:54 3 5 mph 1020.9mb 48f 58f
12:48 2 3 mph 1020.9mb 48f 58f
12:36 2 3 mph 1021mb 49f 58f
12:30 2 3 mph 1020.9mb 49f 58f
12:24 3 5 mph 1020.8mb 48f 58f
12:18 2 5 mph 1020.8mb 49f 57f
12:12 3 5 mph 1020.9mb 49f 57f
12:06 2 6 mph 1020.9mb 49f 57f
12:00 5
mph
1020.9mb 49f 57f
11:54 3 5 mph 1020.9mb 49f 57f
11:48 3 6 mph 1020.8mb 49f 57f
11:36 5
mph
1020.7mb 49f 57f
11:30 5 6 mph 1020.7mb 49f 57f
11:24 6 8 mph 1020.7mb 49f 57f
11:18 5 6 mph 1020.6mb 49f 57f
11:12 3 5 mph 1020.5mb 49f 57f
11:06 3 5 mph 1020.5mb 49f 57f
11:00 3 5 mph 1020.6mb 49f 57f
10:54 3 5 mph 1020.6mb 49f 57f
10:48 2 3 mph 1020.6mb 49f 57f
10:36 2 3 mph 1020.7mb 49f 57f
10:30 1 2 mph 1020.6mb 49f 57f
10:24 1 2 mph 1020.6mb 49f 57f
10:18 1 3 mph 1020.6mb 49f 57f
10:12 1 2 mph 1020.5mb 48f 57f
10:06 2 3 mph 1020.6mb 48f 57f
10:00 2
mph
1020.6mb 49f 57f
9:54  -  2 mph 1020.5mb 49f 57f
9:48  -  2 mph 1020.5mb 49f 56f
9:36  -  3 mph 1020.7mb 49f 56f
9:30 2 3 mph 1020.6mb 49f 56f
9:24 2 5 mph 1020.5mb 49f 56f
9:18 3 5 mph 1020.5mb 49f 56f
9:12 3 5 mph 1020.5mb 49f 56f
9:06 5
mph
1020.5mb 49f 55f
9:00 3
mph
1020.4mb 49f 55f
8:54 2 3 mph 1020.3mb 49f 55f
8:48 3 6 mph 1020.4mb 49f 55f
8:36 3 5 mph 1020.3mb 49f 55f
8:30 3 5 mph 1020.2mb 49f 55f
8:24 5 6 mph 1020.2mb 49f 55f
8:18 5 6 mph 1020.2mb 50f 55f
8:12 3 6 mph 1020.2mb 50f 55f
8:06 5
mph
1020.2mb 50f 55f
8:00 3 5 mph 1020.2mb 50f 56f
7:54 1 2 mph 1020.2mb 51f 56f
7:48 1 2 mph 1020.1mb 51f 56f
7:36 2
mph
1020mb 53f 56f
7:30  -  1 mph 1020mb 55f 56f
7:24 1
mph
1020.1mb 56f 56f
7:18  -  1 mph 1020.1mb 56f 56f
7:12  -  2 mph 1020.2mb 56f 56f
7:06 2
mph
1020.1mb 56f 56f
7:00 1 2 mph 1020.1mb 57f 56f
6:54 2 3 mph 1020.1mb 57f 56f
6:48 2
mph
1020.1mb 57f 56f
6:36 2 3 mph 1020mb 58f 56f
6:30 3
mph
1019.9mb 58f 56f
6:24 2 3 mph 1019.8mb 58f 56f
6:18 2 3 mph 1019.7mb 58f 56f
6:12 2 3 mph 1019.7mb 58f 56f
6:06 2 3 mph 1019.7mb 58f 56f
6:00 1 2 mph 1019.8mb 58f 56f
5:54 2
mph
1019.7mb 58f 56f
5:48 2 3 mph 1019.7mb 58f 56f
5:36 2 3 mph 1019.6mb 58f 56f
5:30 2 3 mph 1019.6mb 58f 56f
5:24 2 3 mph 1019.5mb 58f 56f
5:18 2 3 mph 1019.4mb 57f 56f
5:12  -  mph 1019.4mb 57f 56f
5:06  -  2 mph 1019.4mb 56f 56f
5:00 1 3 mph 1019.3mb 56f 56f
4:54 2 3 mph 1019.2mb 56f 56f
4:48 2 3 mph 1019.1mb 55f 56f
4:36 2 3 mph 1019.1mb 54f 56f
4:30 2
mph
1019.2mb 53f 56f
4:24 2
mph
1019.2mb 52f 56f
4:18 2 3 mph 1019.3mb 51f 56f
4:12 2
mph
1019.3mb 50f 56f
4:06 1
mph
1019.3mb 49f 56f
4:00 2
mph
1019.1mb 49f 56f
3:54 2
mph
1019.2mb 49f 56f
3:48 1 2 mph 1019.2mb 49f 56f
3:36  -  2 mph 1019.2mb 49f 56f
3:30 2 3 mph 1019mb 49f 56f
3:24 2 3 mph 1019mb 49f 56f
3:18 2 3 mph 1019mb 49f 56f
3:12 1 2 mph 1019.2mb 48f 56f
3:06 1 2 mph 1019.2mb 48f 56f
3:00 1 3 mph 1019.2mb 49f 56f
2:54 2
mph
1019.3mb 49f 56f
2:48 1 2 mph 1019.3mb 49f 56f
2:36 2
mph
1019.3mb 49f 56f
2:30 2 3 mph 1019.3mb 49f 56f
2:24 2 5 mph 1019.3mb 49f 56f
2:18 3 5 mph 1019.3mb 49f 57f
2:12 2 3 mph 1019.4mb 49f 57f
2:06 2 3 mph 1019.4mb 49f 57f
2:00 2 3 mph 1019.3mb 49f 57f
1:54 1 2 mph 1019.3mb 49f 57f
1:48  -  3 mph 1019.3mb 49f 57f
1:36 3
mph
1019.2mb 49f 57f
1:30 3 5 mph 1019.1mb 49f 57f
1:24 3
mph
1019.3mb 49f 57f
1:18 3
mph
1019.2mb 49f 57f
1:12 2 3 mph 1019.1mb 49f 57f
1:06 2 5 mph 1019.1mb 49f 57f
1:00 2 5 mph 1019.2mb 49f 57f
12:54 2 3 mph 1019.1mb 49f 57f
12:48 1 3 mph 1019mb 49f 57f
12:36  -  2 mph 1018.9mb 49f 57f
12:30  -  2 mph 1018.9mb 49f 57f
12:24 1 2 mph 1019mb 49f 57f
12:18 2
mph
1019mb 49f 57f
12:12 2 3 mph 1018.9mb 48f 57f
12:06 1 3 mph 1018.9mb 49f 56f
12:00 1 3 mph 1019mb 49f 56f
Seg 06/29 11:54 2 3 mph 1019.1mb 49f 56f
11:48 2 3 mph 1019mb 49f 57f
11:36 2 5 mph 1019mb 49f 56f
11:30 3 5 mph 1019mb 49f 56f
11:24 3 5 mph 1019mb 48f 56f
11:18 3 5 mph 1018.9mb 49f 56f
11:12  -  3 mph 1018.8mb 48f 57f
11:06 2 3 mph 1018.7mb 49f 57f
11:00 3 5 mph 1018.7mb 49f 57f
10:54 3 6 mph 1018.9mb 49f 57f
10:48 5 7 mph 1018.9mb 49f 56f
10:36 3 5 mph 1018.9mb 49f 56f
10:30 2 3 mph 1018.9mb 48f 57f
10:24 3 5 mph 1018.8mb 48f 57f
10:18 3
mph
1018.8mb 48f 57f
10:12 2 6 mph 1018.8mb 48f 56f
10:06 5 6 mph 1018.7mb 49f 56f
10:00 5 6 mph 1018.7mb 48f 56f
9:54 3 5 mph 1018.5mb 49f 57f
9:48 2 3 mph 1018.4mb 49f 57f
9:36 3 5 mph 1018.3mb 49f 57f
9:30 5 6 mph 1018.3mb 49f 57f
9:24 5 6 mph 1018.1mb 49f 57f
9:18 3 6 mph 1018.1mb 49f 58f
9:12 3 5 mph 1018mb 49f 58f
9:06 3 5 mph 1017.9mb 49f 57f
9:00 3 5 mph 1017.9mb 49f 57f
8:54 3 5 mph 1017.9mb 49f 56f
8:48 5 6 mph 1017.9mb 49f 56f
8:36 5 7 mph 1017.9mb 49f 57f
8:30 5 6 mph 1017.8mb 49f 57f
8:24 5 6 mph 1017.7mb 49f 58f
8:18 6 7 mph 1017.7mb 49f 58f
8:12 5 8 mph 1017.7mb 48f 58f
8:06 6 8 mph 1017.7mb 49f 58f
8:00 6 7 mph 1017.7mb 48f 58f
7:54 6 8 mph 1017.6mb 48f 58f
7:48 5 7 mph 1017.6mb 49f 58f
7:36 5 7 mph 1017.5mb 49f 59f
7:30 5 7 mph 1017.4mb 49f 59f
7:24 6 7 mph 1017.5mb 49f 58f
7:18 6 7 mph 1017.5mb 49f 58f
7:12 5 7 mph 1017.5mb 49f 59f
7:06 6 8 mph 1017.6mb 49f 59f
7:00 6 8 mph 1017.6mb 49f 59f
6:54 3 7 mph 1017.6mb 49f 60f
6:48 7 9 mph 1017.6mb 49f 59f
6:36 5 6 mph 1017.6mb 49f 60f
6:30 5 8 mph 1017.7mb 49f 60f
6:24 7 8 mph 1017.6mb 49f 60f
6:18 6 7 mph 1017.8mb 48f 60f
6:12 6 8 mph 1017.8mb 48f 60f
6:06 6 8 mph 1017.8mb 48f 59f
6:00 6 7 mph 1017.7mb 48f 60f
5:54 6 8 mph 1017.7mb 48f 60f
5:48 7 11 mph 1017.6mb 48f 59f
5:36 9 11 mph 1018mb 48f 58f
5:30 8 11 mph 1018mb 48f 58f
5:24 8 10 mph 1018mb 48f 58f
5:18 7 10 mph 1018.1mb 48f 58f
5:12 7 11 mph 1018mb 48f 58f
5:06 7 10 mph 1018.1mb 48f 58f
5:00 9 11 mph 1018mb 48f 58f
4:54 9 13 mph 1018mb 48f 58f
4:48 9 13 mph 1018mb 48f 58f
4:36 11 14 mph 1018mb 48f 59f
4:30 11 15 mph 1018mb 47f 59f
4:24 9 13 mph 1017.8mb 47f 59f
4:18 10 13 mph 1017.8mb 47f 58f
4:12 9 14 mph 1017.9mb 48f 59f
4:06 8 14 mph 1017.9mb 48f 59f
4:00 9 15 mph 1017.9mb 48f 58f
3:54 10 13 mph 1017.9mb 48f 58f
3:48 8 13 mph 1018mb 48f 58f
3:36 11 15 mph 1018.1mb 48f 58f
3:30 10 14 mph 1018mb 48f 58f
3:24 9 13 mph 1018mb 48f 57f
3:18 11 14 mph 1018mb 48f 57f
3:12 10 14 mph 1018mb 48f 57f
3:06 9 15 mph 1017.9mb 49f 58f
3:00 10 14 mph 1017.9mb 48f 58f
2:54 9 14 mph 1017.9mb 48f 58f
2:48 11 14 mph 1017.9mb 48f 58f
2:36 11 16 mph 1017.8mb 48f 58f
2:30 13 16 mph 1017.7mb 48f 58f
2:24 10 15 mph 1017.7mb 48f 60f
2:18 9 16 mph 1017.6mb 48f 60f
2:12 10 15 mph 1017.7mb 48f 60f
2:06 10 14 mph 1017.8mb 48f 59f
2:00 10 13 mph 1017.8mb 48f 59f
1:54 7 13 mph 1017.7mb 48f 60f
1:48 9 14 mph 1017.7mb 48f 60f
1:36 9 14 mph 1017.7mb 48f 60f
1:30 10 15 mph 1017.7mb 48f 60f
1:24 8 13 mph 1017.7mb 48f 60f
1:18 13 16 mph 1017.6mb 48f 60f
1:12 8 15 mph 1017.7mb 48f 60f
1:06 9 14 mph 1017.7mb 48f 60f
1:00 9 14 mph 1017.7mb 48f 60f
12:54 8 13 mph 1017.8mb 48f 60f
12:48 9 14 mph 1017.8mb 47f 59f
12:36 9 14 mph 1017.7mb 47f 59f
12:30 10 18 mph 1017.4mb 47f 59f
12:24 7 17 mph 1017.5mb 47f 59f
12:18 8 15 mph 1017.5mb 50f 59f
12:12 6 13 mph 1017.6mb 50f 59f
12:06 9 15 mph 1017.6mb 50f 58f
12:00 10 16 mph 1017.6mb 50f 58f
11:54 9 15 mph 1017.7mb 50f 58f
11:48 8 15 mph 1017.7mb 50f 58f
11:36 6 15 mph 1017.4mb 48f 57f
11:30 8 13 mph 1017.4mb 48f 57f
11:24 10 15 mph 1017.4mb 48f 57f
11:18 9 16 mph 1017.3mb 48f 56f
11:12 10 15 mph 1017.5mb 48f 55f
11:06 10 14 mph 1017.6mb 48f 54f
11:00 13 15 mph 1017.5mb 48f 55f
10:54 11 15 mph 1017.4mb 48f 55f
10:48 14 16 mph 1017.4mb 48f 55f
10:36 13 17 mph 1017.2mb 48f 56f
10:30 10 15 mph 1017.1mb 48f 56f
10:24 10 16 mph 1017.1mb 48f 56f
10:18 14 17 mph 1017mb 48f 56f
10:12 10 15 mph 1016.8mb 48f 56f
10:06 10 16 mph 1016.7mb 49f 56f
10:00 9 14 mph 1016.7mb 49f 56f
9:54 9 15 mph 1016.5mb 49f 56f
9:48 13 17 mph 1016.4mb 49f 56f
9:36 9 21 mph 1016.3mb 49f 56f
9:30 10 14 mph 1016.4mb 49f 56f
9:24 7 15 mph 1016.3mb 48f 56f
9:18 8 14 mph 1016.2mb 48f 56f